Time;durP1;ratioP1;P1;durP2;ratioP2;P2;SDS_P1;SDS_P2;PMS_P1;PMS_P2;Temp;Humidity;BMP_temperature;BMP_pressure;BME280_temperature;BME280_humidity;BME280_pressure;Samples;Min_cycle;Max_cycle;Signal;HPM_P1;HPM_P2
2022/10/08 00:01:21;;;;;;;15.43;4.78;;;10.90;99.90;;;;;;4954656;28;20035;-66
2022/10/08 00:03:50;;;;;;;9.95;4.32;;;10.80;99.90;;;;;;4959173;28;20038;-66
2022/10/08 00:06:19;;;;;;;14.52;4.53;;;10.80;99.90;;;;;;4957030;28;20036;-66
2022/10/08 00:08:54;;;;;;;16.40;4.65;;;10.80;99.90;;;;;;4955622;28;20577;-66
2022/10/08 00:11:23;;;;;;;14.68;5.85;;;10.80;99.90;;;;;;4955468;28;20031;-66
2022/10/08 00:13:50;;;;;;;14.57;6.47;;;10.70;99.90;;;;;;4958401;28;20035;-66
2022/10/08 00:16:21;;;;;;;15.00;5.47;;;10.60;99.90;;;;;;4960452;28;20038;-66
2022/10/08 00:18:49;;;;;;;16.25;7.03;;;10.60;99.90;;;;;;4960001;28;20038;-67
2022/10/08 00:21:24;;;;;;;17.30;6.93;;;10.50;99.90;;;;;;4960539;28;20530;-66
2022/10/08 00:23:51;;;;;;;15.93;6.13;;;10.60;99.90;;;;;;4956875;28;20329;-66
2022/10/08 00:26:19;;;;;;;18.48;6.32;;;10.60;99.90;;;;;;4955621;28;20503;-66
2022/10/08 00:28:46;;;;;;;18.25;5.25;;;10.50;99.90;;;;;;4948181;28;20036;-66
2022/10/08 00:31:14;;;;;;;11.95;4.25;;;10.40;99.90;;;;;;4955576;28;20487;-66
2022/10/08 00:33:39;;;;;;;17.70;5.22;;;10.30;99.90;;;;;;4957823;28;20042;-66
2022/10/08 00:36:08;;;;;;;12.07;4.82;;;10.30;99.90;;;;;;4953405;28;20039;-66
2022/10/08 00:38:34;;;;;;;11.43;4.78;;;10.40;99.90;;;;;;4958430;28;20042;-66
2022/10/08 00:41:00;;;;;;;8.88;4.22;;;10.30;99.90;;;;;;4956248;28;20031;-65
2022/10/08 00:43:45;;;;;;;11.82;3.88;;;10.30;99.90;;;;;;4952571;28;20615;-66
2022/10/08 00:46:22;;;;;;;10.20;3.90;;;10.20;99.90;;;;;;4956376;28;20035;-66
2022/10/08 00:49:12;;;;;;;11.15;4.50;;;10.30;99.90;;;;;;4960009;28;20042;-66
2022/10/08 00:51:43;;;;;;;12.05;4.43;;;10.30;99.90;;;;;;4951819;28;20050;-66
2022/10/08 00:54:09;;;;;;;15.15;5.10;;;10.30;99.90;;;;;;4955014;28;20039;-66
2022/10/08 00:56:37;;;;;;;13.10;4.45;;;10.20;99.90;;;;;;4958142;28;20410;-66
2022/10/08 00:59:03;;;;;;;13.80;3.92;;;10.10;99.90;;;;;;4956501;28;20130;-66
2022/10/08 01:01:29;;;;;;;11.52;3.50;;;10.10;99.90;;;;;;4959234;28;20481;-66
2022/10/08 01:03:56;;;;;;;12.95;3.85;;;10.10;99.90;;;;;;4957190;28;20047;-66
2022/10/08 01:06:42;;;;;;;15.95;3.72;;;10.10;99.90;;;;;;4955777;28;20047;-66
2022/10/08 01:09:13;;;;;;;12.38;3.55;;;10.00;99.90;;;;;;4955208;28;20054;-66
2022/10/08 01:11:45;;;;;;;12.38;4.10;;;10.00;99.90;;;;;;4956182;28;20038;-67
2022/10/08 01:14:44;;;;;;;14.00;3.70;;;10.00;99.90;;;;;;4945830;28;20043;-66
2022/10/08 01:17:29;;;;;;;12.32;3.85;;;10.10;99.90;;;;;;4959811;28;20095;-67
2022/10/08 01:20:22;;;;;;;9.75;3.60;;;10.10;99.90;;;;;;4960029;28;20042;-67
2022/10/08 01:23:21;;;;;;;10.02;3.53;;;10.10;99.90;;;;;;4951246;28;20674;-67
2022/10/08 01:26:05;;;;;;;10.82;3.60;;;10.10;99.90;;;;;;4951266;28;20459;-67
2022/10/08 01:28:53;;;;;;;9.48;3.58;;;10.10;99.90;;;;;;4953021;28;20058;-67
2022/10/08 01:31:24;;;;;;;12.95;3.20;;;10.10;99.90;;;;;;4957013;28;20035;-67
2022/10/08 01:33:57;;;;;;;14.25;3.88;;;10.10;99.90;;;;;;4955962;28;20054;-66
2022/10/08 01:36:24;;;;;;;10.93;3.78;;;10.10;99.90;;;;;;4952542;28;20030;-67
2022/10/08 01:38:55;;;;;;;16.65;3.67;;;10.00;99.90;;;;;;4955614;28;20044;-66
2022/10/08 01:41:24;;;;;;;12.18;3.20;;;10.00;99.90;;;;;;4960480;28;20035;-67
2022/10/08 01:43:57;;;;;;;11.15;3.85;;;9.90;99.90;;;;;;4958964;28;20698;-67
2022/10/08 01:46:27;;;;;;;8.07;3.20;;;10.00;99.90;;;;;;4952088;28;20046;-67
2022/10/08 01:48:59;;;;;;;10.07;3.53;;;10.10;99.90;;;;;;4955254;28;20515;-67
2022/10/08 01:51:35;;;;;;;10.98;3.45;;;10.10;99.90;;;;;;4955552;28;20254;-67
2022/10/08 01:54:05;;;;;;;13.18;3.67;;;10.20;99.90;;;;;;4954770;28;20050;-66
2022/10/08 01:56:34;;;;;;;11.65;3.72;;;10.30;99.90;;;;;;4954922;28;20117;-66
2022/10/08 01:59:14;;;;;;;19.48;4.07;;;10.30;99.90;;;;;;4955974;28;20457;-67
2022/10/08 02:01:58;;;;;;;12.43;3.67;;;10.30;99.90;;;;;;4956377;28;20038;-66
2022/10/08 02:04:33;;;;;;;15.82;3.42;;;10.40;99.90;;;;;;4949980;28;20632;-66
2022/10/08 02:07:09;;;;;;;10.40;3.30;;;10.30;99.90;;;;;;4954470;28;20028;-67
2022/10/08 02:09:38;;;;;;;15.93;3.25;;;10.40;99.90;;;;;;4954762;28;20031;-66
2022/10/08 02:12:05;;;;;;;12.73;3.50;;;10.40;99.90;;;;;;4958530;28;20069;-66
2022/10/08 02:14:32;;;;;;;11.07;3.20;;;10.50;99.90;;;;;;4947285;28;20130;-66
2022/10/08 02:17:06;;;;;;;8.77;2.85;;;10.60;99.90;;;;;;4951073;28;20039;-66
2022/10/08 02:19:48;;;;;;;12.68;3.78;;;10.70;99.90;;;;;;4958779;28;20532;-66
2022/10/08 02:22:16;;;;;;;12.07;2.80;;;11.00;99.90;;;;;;4957207;28;20035;-67
2022/10/08 02:24:51;;;;;;;10.52;3.85;;;11.00;99.90;;;;;;4956536;28;20043;-67
2022/10/08 02:27:24;;;;;;;19.08;3.28;;;11.20;99.90;;;;;;4954598;28;20316;-66
2022/10/08 02:29:59;;;;;;;;;;;11.30;99.90;;;;;;4958194;28;20074;-66
2022/10/08 02:32:35;;;;;;;9.55;3.03;;;11.40;99.90;;;;;;4952887;28;20290;-67
2022/10/08 02:35:08;;;;;;;11.75;3.17;;;11.40;99.90;;;;;;4954023;28;20069;-66
2022/10/08 02:37:37;;;;;;;;;;;11.50;99.90;;;;;;4954512;28;20487;-66
2022/10/08 02:40:08;;;;;;;9.30;2.70;;;11.50;99.90;;;;;;4955297;28;19945;-66
2022/10/08 02:42:36;;;;;;;14.68;3.50;;;11.60;99.90;;;;;;4950192;28;20035;-67
2022/10/08 02:45:07;;;;;;;9.90;2.70;;;11.70;99.90;;;;;;4957772;28;20035;-67
2022/10/08 02:47:37;;;;;;;14.18;3.42;;;11.80;99.90;;;;;;4959567;28;20094;-67
2022/10/08 02:50:09;;;;;;;15.07;3.38;;;11.80;99.90;;;;;;4954831;28;20507;-67
2022/10/08 02:52:38;;;;;;;13.25;3.75;;;11.80;99.90;;;;;;4953830;28;20503;-67
2022/10/08 02:55:30;;;;;;;11.70;3.28;;;11.80;99.90;;;;;;4953477;28;20046;-66
2022/10/08 02:58:05;;;;;;;13.18;3.33;;;11.90;99.90;;;;;;4961040;28;20467;-67
2022/10/08 03:00:37;;;;;;;13.88;3.72;;;12.00;99.90;;;;;;4975470;28;20039;-67
2022/10/08 03:03:27;;;;;;;15.63;3.50;;;12.10;99.90;;;;;;4957455;28;20035;-67
2022/10/08 03:05:53;;;;;;;18.20;3.78;;;12.10;99.90;;;;;;4953830;28;20039;-67
2022/10/08 03:08:20;;;;;;;13.80;3.92;;;12.20;99.90;;;;;;4959198;28;20553;-67
2022/10/08 03:10:47;;;;;;;14.55;3.50;;;12.10;99.90;;;;;;4961311;28;20126;-68
2022/10/08 03:13:13;;;;;;;16.45;3.70;;;12.20;99.90;;;;;;4960262;28;20174;-67
2022/10/08 03:15:40;;;;;;;13.68;3.47;;;12.10;99.90;;;;;;4956530;28;20047;-68
2022/10/08 03:18:09;;;;;;;12.77;3.72;;;12.10;99.90;;;;;;4954789;28;20043;-67
2022/10/08 03:20:48;;;;;;;15.05;3.92;;;12.00;99.90;;;;;;4959939;28;20083;-67
2022/10/08 03:23:17;;;;;;;19.40;4.40;;;12.00;99.90;;;;;;4956476;28;20027;-67
2022/10/08 03:25:42;;;;;;;18.67;4.20;;;12.10;99.90;;;;;;4962802;28;20121;-67
2022/10/08 03:28:08;;;;;;;13.55;3.97;;;12.00;99.90;;;;;;4954490;28;20127;-67
2022/10/08 03:30:34;;;;;;;17.85;4.05;;;12.00;99.90;;;;;;4964421;28;20546;-68
2022/10/08 03:33:00;;;;;;;12.50;4.03;;;12.10;99.90;;;;;;4958192;28;20054;-67
2022/10/08 03:35:25;;;;;;;17.02;4.72;;;12.10;99.90;;;;;;4954978;28;20448;-67
2022/10/08 03:37:52;;;;;;;15.52;4.65;;;12.20;99.90;;;;;;4960276;28;20125;-68
2022/10/08 03:40:19;;;;;;;17.67;4.10;;;12.20;99.90;;;;;;4961115;28;20607;-68
2022/10/08 03:42:44;;;;;;;18.10;4.90;;;12.10;99.90;;;;;;4962562;28;20039;-68
2022/10/08 03:45:10;;;;;;;18.05;4.95;;;12.10;99.90;;;;;;4961481;28;20028;-68
2022/10/08 03:47:36;;;;;;;14.50;4.57;;;12.10;99.90;;;;;;4958433;28;20618;-68
2022/10/08 03:50:01;;;;;;;16.90;5.35;;;12.20;99.90;;;;;;4960347;28;20062;-69
2022/10/08 03:52:29;;;;;;;16.52;5.15;;;12.20;99.90;;;;;;4975999;28;20463;-70
2022/10/08 03:54:55;;;;;;;12.82;5.10;;;12.20;99.90;;;;;;4958799;28;20039;-70
2022/10/08 03:57:20;;;;;;;18.17;4.95;;;12.20;99.90;;;;;;4956467;28;20035;-70
2022/10/08 03:59:46;;;;;;;15.02;5.18;;;12.10;99.90;;;;;;4960254;28;20039;-69
2022/10/08 04:02:12;;;;;;;14.25;5.05;;;12.20;99.90;;;;;;4951348;28;20035;-70
2022/10/08 04:04:37;;;;;;;14.13;4.88;;;12.30;99.90;;;;;;4954483;28;20126;-68
2022/10/08 04:07:03;;;;;;;18.48;5.22;;;12.30;99.90;;;;;;4956893;28;20137;-70
2022/10/08 04:09:28;;;;;;;19.17;5.60;;;12.30;99.90;;;;;;4956776;28;20046;-68
2022/10/08 04:11:54;;;;;;;12.02;5.15;;;12.30;99.90;;;;;;4961784;28;20105;-69
2022/10/08 04:14:19;;;;;;;13.48;5.35;;;12.20;99.90;;;;;;4964566;28;20043;-69
2022/10/08 04:16:46;;;;;;;15.68;5.93;;;12.20;99.90;;;;;;4957907;28;20439;-69
2022/10/08 04:19:12;;;;;;;12.40;5.25;;;12.20;99.90;;;;;;4959077;28;20035;-67
2022/10/08 04:21:37;;;;;;;17.63;5.75;;;12.30;99.90;;;;;;4954874;28;20049;-68
2022/10/08 04:24:03;;;;;;;18.67;5.38;;;12.30;99.90;;;;;;4955609;28;20051;-68
2022/10/08 04:26:29;;;;;;;12.38;5.30;;;12.30;99.90;;;;;;4950929;28;20027;-68
2022/10/08 04:28:55;;;;;;;18.23;5.40;;;12.30;99.90;;;;;;4961477;28;20039;-68
2022/10/08 04:31:22;;;;;;;12.55;5.25;;;12.30;99.90;;;;;;4959273;28;20122;-68
2022/10/08 04:33:48;;;;;;;13.88;5.07;;;12.30;99.90;;;;;;4952775;28;20121;-68
2022/10/08 04:36:22;;;;;;;11.93;5.13;;;12.30;99.90;;;;;;4950453;28;20024;-68
2022/10/08 04:38:49;;;;;;;15.27;4.72;;;12.30;99.90;;;;;;4958899;28;20039;-68
2022/10/08 04:41:17;;;;;;;17.90;4.65;;;12.30;99.90;;;;;;4959909;28;20459;-68
2022/10/08 04:43:44;;;;;;;18.25;4.63;;;12.20;99.90;;;;;;4950842;28;20559;-68
2022/10/08 04:46:12;;;;;;;10.77;4.65;;;12.30;99.90;;;;;;4949945;28;20082;-68
2022/10/08 04:48:38;;;;;;;14.60;4.50;;;12.30;99.90;;;;;;4958032;28;20129;-68
2022/10/08 04:51:06;;;;;;;13.85;4.53;;;12.40;99.90;;;;;;4951808;28;20210;-68
2022/10/08 04:53:32;;;;;;;9.63;4.10;;;12.30;99.90;;;;;;4963003;28;20055;-68
2022/10/08 04:56:07;;;;;;;14.13;4.53;;;12.40;99.90;;;;;;4961873;28;20039;-68
2022/10/08 04:58:32;;;;;;;13.43;4.20;;;12.40;99.90;;;;;;4957588;28;20645;-68
2022/10/08 05:01:05;;;;;;;11.95;4.22;;;12.40;99.90;;;;;;4962470;28;20026;-68
2022/10/08 05:03:35;;;;;;;12.73;5.15;;;12.40;99.90;;;;;;4957218;28;20035;-68
2022/10/08 05:06:00;;;;;;;12.77;4.30;;;12.40;99.90;;;;;;4950649;28;20130;-68
2022/10/08 05:08:28;;;;;;;10.32;4.38;;;12.40;99.90;;;;;;4952997;28;20567;-68
2022/10/08 05:10:53;;;;;;;12.15;5.35;;;12.40;99.90;;;;;;4955081;28;20043;-68
2022/10/08 05:13:19;;;;;;;12.27;4.53;;;12.40;99.90;;;;;;4949491;28;20625;-68
2022/10/08 05:15:44;;;;;;;18.75;4.57;;;12.40;99.90;;;;;;4956863;28;20046;-68
2022/10/08 05:18:10;;;;;;;11.57;5.03;;;12.40;99.90;;;;;;4955184;28;20035;-68
2022/10/08 05:20:36;;;;;;;11.88;4.28;;;12.40;99.90;;;;;;4954391;28;20500;-68
2022/10/08 05:23:02;;;;;;;11.15;4.82;;;12.40;99.90;;;;;;4959218;28;20494;-69
2022/10/08 05:25:30;;;;;;;12.15;4.93;;;12.50;99.90;;;;;;4957745;28;20399;-68
2022/10/08 05:27:56;;;;;;;11.20;4.90;;;12.40;99.90;;;;;;4952047;28;20043;-68
2022/10/08 05:30:22;;;;;;;15.23;4.28;;;12.40;99.90;;;;;;4958304;28;20092;-68
2022/10/08 05:32:47;;;;;;;10.82;4.72;;;12.40;99.90;;;;;;4957745;28;20525;-68
2022/10/08 05:35:13;;;;;;;13.98;4.85;;;12.40;99.90;;;;;;4954087;28;20808;-68
2022/10/08 05:37:39;;;;;;;15.23;5.53;;;12.40;99.90;;;;;;4959335;28;20613;-68
2022/10/08 05:40:05;;;;;;;13.52;5.13;;;12.40;99.90;;;;;;4957610;28;20034;-68
2022/10/08 05:42:30;;;;;;;12.20;5.35;;;12.40;99.90;;;;;;4958889;28;20051;-68
2022/10/08 05:44:56;;;;;;;12.90;5.05;;;12.40;99.90;;;;;;4955207;28;20213;-68
2022/10/08 05:47:21;;;;;;;13.75;5.15;;;12.50;99.90;;;;;;4958857;28;20058;-68
2022/10/08 05:49:47;;;;;;;16.70;5.53;;;12.60;99.90;;;;;;4958487;28;20039;-68
2022/10/08 05:52:12;;;;;;;16.10;5.35;;;12.40;99.90;;;;;;4955883;28;20035;-68
2022/10/08 05:54:38;;;;;;;13.23;5.15;;;12.40;99.90;;;;;;4953666;28;20575;-68
2022/10/08 05:57:03;;;;;;;14.73;5.43;;;12.40;99.90;;;;;;4954183;28;20039;-68
2022/10/08 05:59:29;;;;;;;13.70;5.13;;;12.40;99.90;;;;;;4956314;28;20054;-68
2022/10/08 06:01:54;;;;;;;15.85;4.85;;;12.40;99.90;;;;;;4953715;28;20130;-68
2022/10/08 06:04:20;;;;;;;12.70;5.72;;;12.40;99.90;;;;;;4954191;28;20035;-68
2022/10/08 06:06:46;;;;;;;16.02;6.80;;;12.40;99.90;;;;;;4954369;28;20114;-68
2022/10/08 06:09:14;;;;;;;17.45;6.35;;;12.50;99.90;;;;;;4951906;28;20471;-68
2022/10/08 06:11:41;;;;;;;16.50;7.15;;;12.50;99.90;;;;;;4958688;28;20054;-68
2022/10/08 06:14:08;;;;;;;15.43;7.75;;;12.50;99.90;;;;;;4954055;28;20027;-68
2022/10/08 06:16:34;;;;;;;14.25;7.95;;;12.50;99.90;;;;;;4951984;28;20043;-69
2022/10/08 06:19:01;;;;;;;20.55;9.57;;;12.50;99.90;;;;;;4958799;28;20042;-68
2022/10/08 06:21:28;;;;;;;25.13;11.13;;;12.50;99.90;;;;;;4961871;28;20046;-69
2022/10/08 06:23:58;;;;;;;25.08;11.45;;;12.50;99.90;;;;;;4960935;28;20152;-69
2022/10/08 06:26:27;;;;;;;18.50;11.95;;;12.40;99.90;;;;;;4956193;28;20043;-65
2022/10/08 06:28:52;;;;;;;20.95;11.82;;;12.40;99.90;;;;;;4965727;28;20458;-66
2022/10/08 06:31:18;;;;;;;21.40;12.40;;;12.40;99.90;;;;;;4965883;28;20027;-65
2022/10/08 06:33:45;;;;;;;24.70;12.68;;;12.50;99.90;;;;;;4961217;28;20038;-65
2022/10/08 06:36:19;;;;;;;23.25;13.75;;;12.50;99.90;;;;;;4953328;28;20031;-66
2022/10/08 06:38:53;;;;;;;20.58;13.20;;;12.40;99.90;;;;;;4956441;28;20039;-65
2022/10/08 06:41:18;;;;;;;;;;;12.50;99.90;;;;;;4952651;28;20047;-66
2022/10/08 06:43:44;;;;;;;28.13;13.38;;;12.50;99.90;;;;;;4958827;28;19918;-65
2022/10/08 06:46:10;;;;;;;21.40;13.00;;;12.50;99.90;;;;;;4961467;28;20035;-66
2022/10/08 06:48:35;;;;;;;23.77;13.57;;;12.50;99.90;;;;;;4957912;28;20379;-65
2022/10/08 06:51:04;;;;;;;29.25;14.65;;;12.50;99.90;;;;;;4956658;28;20658;-66
2022/10/08 06:53:31;;;;;;;30.45;15.60;;;12.40;99.90;;;;;;4961956;28;20330;-67
2022/10/08 06:56:02;;;;;;;25.02;14.45;;;12.50;99.90;;;;;;4957603;28;20050;-65
2022/10/08 06:58:29;;;;;;;26.98;17.05;;;12.50;99.90;;;;;;4954774;28;20027;-65
2022/10/08 07:01:07;;;;;;;31.40;16.67;;;12.60;99.90;;;;;;4957641;28;20517;-65
2022/10/08 07:03:34;;;;;;;32.50;16.70;;;12.60;99.90;;;;;;4979665;28;20110;-67
2022/10/08 07:06:01;;;;;;;28.48;15.88;;;12.50;99.90;;;;;;4958344;28;20034;-66
2022/10/08 07:08:27;;;;;;;25.98;16.10;;;12.50;99.90;;;;;;4951859;28;20035;-67
2022/10/08 07:10:53;;;;;;;32.13;18.25;;;12.60;99.90;;;;;;4958882;28;20487;-65
2022/10/08 07:13:19;;;;;;;32.95;18.30;;;12.60;99.90;;;;;;4952957;28;20083;-66
2022/10/08 07:15:44;;;;;;;32.30;18.77;;;12.70;99.90;;;;;;4957441;28;20495;-66
2022/10/08 07:18:11;;;;;;;34.38;19.00;;;12.70;99.90;;;;;;4954740;28;20627;-66
2022/10/08 07:20:37;;;;;;;38.55;18.92;;;12.70;99.90;;;;;;4951877;28;20834;-66
2022/10/08 07:23:03;;;;;;;29.83;18.65;;;12.80;99.90;;;;;;4959114;28;20151;-66
2022/10/08 07:25:29;;;;;;;35.35;19.42;;;12.80;99.90;;;;;;4962204;28;20037;-67
2022/10/08 07:27:55;;;;;;;30.15;19.55;;;13.00;99.90;;;;;;4956657;28;20042;-66
2022/10/08 07:30:20;;;;;;;35.08;19.85;;;13.00;99.90;;;;;;4959141;28;20035;-66
2022/10/08 07:32:46;;;;;;;36.78;20.55;;;13.00;99.90;;;;;;4961012;28;20117;-67
2022/10/08 07:35:11;;;;;;;34.60;20.67;;;13.00;99.90;;;;;;4954711;28;20047;-66
2022/10/08 07:37:41;;;;;;;38.35;21.38;;;13.10;99.90;;;;;;4949579;28;20034;-68
2022/10/08 07:40:07;;;;;;;37.95;20.70;;;13.10;99.90;;;;;;4959485;28;20062;-67
2022/10/08 07:42:32;;;;;;;36.53;22.02;;;13.20;99.90;;;;;;4950560;28;20035;-66
2022/10/08 07:44:58;;;;;;;42.28;22.00;;;13.30;99.90;;;;;;4960863;28;20415;-66
2022/10/08 07:47:24;;;;;;;38.80;21.08;;;13.20;99.90;;;;;;4961706;28;20038;-66
2022/10/08 07:49:50;;;;;;;35.03;21.42;;;13.20;99.90;;;;;;4955838;28;20070;-67
2022/10/08 07:52:16;;;;;;;37.50;22.33;;;13.20;99.90;;;;;;4957784;28;20126;-66
2022/10/08 07:54:44;;;;;;;34.85;21.80;;;13.20;99.90;;;;;;4960697;28;20152;-66
2022/10/08 07:57:09;;;;;;;39.30;22.63;;;13.20;99.90;;;;;;4958298;28;20129;-66
2022/10/08 07:59:35;;;;;;;38.72;22.30;;;13.10;99.90;;;;;;4955281;28;20154;-66
2022/10/08 08:02:01;;;;;;;38.15;22.63;;;13.20;99.90;;;;;;4957190;28;20042;-66
2022/10/08 08:04:26;;;;;;;37.70;23.38;;;13.40;99.90;;;;;;4961051;28;20130;-63
2022/10/08 08:06:52;;;;;;;38.17;22.52;;;13.40;99.90;;;;;;4958044;28;20050;-62
2022/10/08 08:09:18;;;;;;;36.65;22.90;;;13.40;99.90;;;;;;4961021;28;20037;-63
2022/10/08 08:11:45;;;;;;;41.15;22.90;;;13.50;99.90;;;;;;4959034;28;20038;-63
2022/10/08 08:14:11;;;;;;;38.90;22.88;;;13.60;99.90;;;;;;4955877;28;20039;-62
2022/10/08 08:16:37;;;;;;;35.97;22.08;;;13.50;99.90;;;;;;4954631;28;20039;-63
2022/10/08 08:19:03;;;;;;;36.45;21.35;;;13.50;99.90;;;;;;4957338;28;20059;-63
2022/10/08 08:21:31;;;;;;;31.58;19.70;;;13.50;99.90;;;;;;4953540;28;20109;-61
2022/10/08 08:24:01;;;;;;;29.30;18.17;;;13.40;99.90;;;;;;4956771;28;20043;-61
2022/10/08 08:26:31;;;;;;;29.70;18.63;;;13.40;99.90;;;;;;4953023;28;20114;-62
2022/10/08 08:28:59;;;;;;;31.02;19.55;;;13.40;99.90;;;;;;4953553;28;20061;-62
2022/10/08 08:31:28;;;;;;;33.22;19.60;;;13.50;99.90;;;;;;4961159;28;20399;-62
2022/10/08 08:33:59;;;;;;;32.58;18.83;;;13.60;99.90;;;;;;4953768;28;20597;-62
2022/10/08 08:36:31;;;;;;;34.05;19.60;;;13.80;99.90;;;;;;4960806;28;20446;-61
2022/10/08 08:38:58;;;;;;;29.90;17.38;;;13.90;99.90;;;;;;4957868;28;20082;-62
2022/10/08 08:42:10;;;;;;;30.90;17.48;;;13.90;99.90;;;;;;4954217;28;20038;-64
2022/10/08 08:44:45;;;;;;;32.92;17.38;;;13.90;99.90;;;;;;4958560;28;20556;-62
2022/10/08 08:47:35;;;;;;;29.40;15.60;;;13.90;99.90;;;;;;4959957;28;20046;-62
2022/10/08 08:50:27;;;;;;;27.15;15.52;;;14.10;99.90;;;;;;4959726;28;20031;-62
2022/10/08 08:52:54;;;;;;;23.83;15.07;;;14.20;99.90;;;;;;4954426;28;20055;-63
2022/10/08 08:55:37;;;;;;;22.50;14.35;;;14.30;99.90;;;;;;4961970;28;20045;-62
2022/10/08 08:58:26;;;;;;;22.07;13.57;;;14.20;99.90;;;;;;4959514;28;20035;-61
2022/10/08 09:01:03;;;;;;;22.85;13.23;;;14.30;99.90;;;;;;4952300;28;20125;-61
2022/10/08 09:03:33;;;;;;;26.55;12.65;;;14.50;99.90;;;;;;4959225;28;20086;-62
2022/10/08 09:06:05;;;;;;;25.00;11.77;;;14.60;99.90;;;;;;4952533;28;20467;-62
2022/10/08 09:09:09;;;;;;;23.77;11.52;;;14.50;99.90;;;;;;4950663;28;20518;-62
2022/10/08 09:11:35;;;;;;;;;;;14.30;99.90;;;;;;4885984;29;20119;-62
2022/10/08 09:14:20;;;;;;;18.20;9.45;;;14.20;99.90;;;;;;4937514;28;20351;-61
2022/10/08 09:16:45;;;;;;;25.27;10.50;;;14.20;99.90;;;;;;4957525;28;20166;-62
2022/10/08 09:19:11;;;;;;;18.40;8.52;;;14.30;99.90;;;;;;4958236;28;20117;-62
2022/10/08 09:21:37;;;;;;;15.30;8.27;;;14.20;99.90;;;;;;4953263;28;20500;-62
2022/10/08 09:24:02;;;;;;;15.75;7.63;;;14.20;99.90;;;;;;4957285;28;20031;-64
2022/10/08 09:26:35;;;;;;;15.27;6.88;;;14.40;99.90;;;;;;4954049;28;20043;-62
2022/10/08 09:29:02;;;;;;;17.10;7.38;;;14.40;99.90;;;;;;4952989;28;20043;-63
2022/10/08 09:31:54;;;;;;;16.17;6.60;;;14.40;99.90;;;;;;4958421;28;20129;-61
2022/10/08 09:34:20;;;;;;;14.50;6.05;;;14.50;99.90;;;;;;4952718;28;20031;-64
2022/10/08 09:36:51;;;;;;;15.85;5.70;;;14.50;99.90;;;;;;4955830;28;20126;-62
2022/10/08 09:39:23;;;;;;;16.27;5.97;;;14.50;99.90;;;;;;4956964;28;20039;-63
2022/10/08 09:42:13;;;;;;;20.50;5.53;;;14.50;99.90;;;;;;4960550;28;20094;-62
2022/10/08 09:44:59;;;;;;;12.88;5.63;;;14.40;99.90;;;;;;4948353;28;20436;-62
2022/10/08 09:47:26;;;;;;;10.90;5.30;;;14.60;99.90;;;;;;4955767;28;20483;-62
2022/10/08 09:50:04;;;;;;;13.20;5.15;;;14.60;99.90;;;;;;4960102;28;20526;-63
2022/10/08 09:52:30;;;;;;;13.63;5.30;;;14.50;99.90;;;;;;4952945;28;20125;-64
2022/10/08 09:55:01;;;;;;;9.20;4.40;;;14.50;99.90;;;;;;4955754;28;20495;-62
2022/10/08 09:57:28;;;;;;;12.90;4.95;;;14.50;99.90;;;;;;4956950;28;20031;-62
2022/10/08 09:59:57;;;;;;;11.10;4.43;;;14.60;99.90;;;;;;4958560;28;20047;-62
2022/10/08 10:02:31;;;;;;;23.88;11.45;;;14.70;99.90;;;;;;4957756;28;20435;-62
2022/10/08 10:04:58;;;;;;;12.32;3.55;;;15.00;99.90;;;;;;4956793;28;20090;-62
2022/10/08 10:07:34;;;;;;;11.65;3.35;;;15.10;99.90;;;;;;4957820;28;20031;-62
2022/10/08 10:10:02;;;;;;;10.20;3.42;;;14.90;99.90;;;;;;4955484;28;20062;-62
2022/10/08 10:12:35;;;;;;;9.50;2.75;;;14.80;99.90;;;;;;4956575;28;20043;-62
2022/10/08 10:15:03;;;;;;;;;;;14.70;99.90;;;;;;4955758;28;20408;-63
2022/10/08 10:17:28;;;;;;;7.90;2.63;;;14.60;99.90;;;;;;4958145;28;20036;-62
2022/10/08 10:20:00;;;;;;;8.20;2.67;;;14.60;99.90;;;;;;4957626;28;20444;-63
2022/10/08 10:22:46;;;;;;;8.70;2.20;;;14.60;99.90;;;;;;4955167;28;20046;-64
2022/10/08 10:25:35;;;;;;;9.20;1.65;;;14.60;99.90;;;;;;4954938;28;20031;-64
2022/10/08 10:28:07;;;;;;;5.80;1.90;;;14.60;99.90;;;;;;4956078;28;20074;-62
2022/10/08 10:31:19;;;;;;;7.57;1.80;;;14.70;99.90;;;;;;4955599;28;20030;-63
2022/10/08 10:33:57;;;;;;;11.30;2.15;;;14.80;99.90;;;;;;4953802;28;20487;-62
2022/10/08 10:36:28;;;;;;;8.43;2.30;;;15.00;99.90;;;;;;4959559;28;20037;-62
2022/10/08 10:39:11;;;;;;;11.32;2.20;;;15.10;99.90;;;;;;4957732;28;20027;-63
2022/10/08 10:41:45;;;;;;;8.70;2.10;;;15.10;99.90;;;;;;4954274;28;20031;-62
2022/10/08 10:44:31;;;;;;;6.68;2.10;;;15.20;99.90;;;;;;4956849;28;20070;-63
2022/10/08 10:46:58;;;;;;;8.40;2.15;;;15.40;99.90;;;;;;4950576;28;20042;-63
2022/10/08 10:49:37;;;;;;;7.68;1.95;;;15.40;99.90;;;;;;4952650;28;20367;-62
2022/10/08 10:52:32;;;;;;;6.15;1.60;;;15.40;99.90;;;;;;4950738;28;20932;-63
2022/10/08 10:55:16;;;;;;;6.32;1.52;;;15.40;99.90;;;;;;4955348;28;20066;-62
2022/10/08 10:57:42;;;;;;;3.65;1.35;;;15.40;99.90;;;;;;4954493;28;20055;-62
2022/10/08 11:00:22;;;;;;;7.90;1.60;;;15.40;99.90;;;;;;4956770;28;20039;-63
2022/10/08 11:03:31;;;;;;;7.05;1.70;;;15.50;99.90;;;;;;4954471;28;20336;-64
2022/10/08 11:06:28;;;;;;;6.25;1.52;;;15.60;99.90;;;;;;4878952;28;20163;-63
2022/10/08 11:09:24;;;;;;;9.32;1.50;;;15.70;99.90;;;;;;4955164;28;20513;-64
2022/10/08 11:11:56;;;;;;;5.78;1.65;;;15.60;99.90;;;;;;4957452;28;20039;-63
2022/10/08 11:14:37;;;;;;;6.90;1.48;;;15.80;99.90;;;;;;4951537;28;20455;-63
2022/10/08 11:17:38;;;;;;;6.45;1.77;;;15.90;99.90;;;;;;4957973;28;20069;-63
2022/10/08 11:20:09;;;;;;;9.30;2.30;;;15.90;99.90;;;;;;4957269;28;20045;-62
2022/10/08 11:22:55;;;;;;;10.00;4.68;;;15.90;99.90;;;;;;4957945;28;20105;-62
2022/10/08 11:25:36;;;;;;;6.65;1.13;;;16.00;99.90;;;;;;4956592;28;20031;-63
2022/10/08 11:28:39;;;;;;;6.80;1.17;;;15.90;99.90;;;;;;4957314;28;20035;-62
2022/10/08 11:31:47;;;;;;;5.50;1.17;;;15.90;99.90;;;;;;4959762;28;20415;-62
2022/10/08 11:34:35;;;;;;;4.13;1.00;;;15.80;99.90;;;;;;4921724;29;20195;-62
2022/10/08 11:37:19;;;;;;;4.00;1.35;;;15.80;99.90;;;;;;4926988;29;20499;-62
2022/10/08 11:40:12;;;;;;;4.82;1.10;;;15.90;99.90;;;;;;4949542;28;20138;-63
2022/10/08 11:43:03;;;;;;;5.93;1.48;;;16.00;99.90;;;;;;4959057;28;20507;-62
2022/10/08 11:45:35;;;;;;;7.10;1.27;;;15.90;99.90;;;;;;4956534;28;20027;-62
2022/10/08 11:48:30;;;;;;;10.75;1.50;;;15.90;99.90;;;;;;4959198;28;20035;-62
2022/10/08 11:51:17;;;;;;;3.92;1.00;;;15.90;99.90;;;;;;4958200;28;20043;-63
2022/10/08 11:54:14;;;;;;;7.65;1.73;;;16.00;99.90;;;;;;4956371;28;20149;-62
2022/10/08 11:56:45;;;;;;;6.35;1.40;;;16.10;99.90;;;;;;4960045;28;20044;-62
2022/10/08 11:59:32;;;;;;;4.60;1.10;;;16.20;99.90;;;;;;4957062;28;20518;-63
2022/10/08 12:02:00;;;;;;;6.10;1.60;;;16.40;99.90;;;;;;4953040;28;20138;-63
2022/10/08 12:04:30;;;;;;;7.13;1.40;;;16.30;99.90;;;;;;4957845;28;20146;-63
2022/10/08 12:07:15;;;;;;;9.90;1.60;;;16.20;99.90;;;;;;4962589;28;20049;-62
2022/10/08 12:10:05;;;;;;;4.57;1.45;;;16.00;99.90;;;;;;4955461;28;20673;-63
2022/10/08 12:12:49;;;;;;;5.30;1.42;;;15.90;99.90;;;;;;4953821;28;20468;-63
2022/10/08 12:15:39;;;;;;;7.18;2.80;;;15.90;99.90;;;;;;4952217;28;20447;-62
2022/10/08 12:18:19;;;;;;;8.40;1.30;;;15.90;99.90;;;;;;4955153;28;20439;-64
2022/10/08 12:20:45;;;;;;;4.95;1.20;;;16.00;99.90;;;;;;4956123;28;20040;-62
2022/10/08 12:23:19;;;;;;;5.28;1.20;;;16.00;99.90;;;;;;4957691;28;20157;-62
2022/10/08 12:25:45;;;;;;;7.22;1.50;;;16.00;99.90;;;;;;4956810;28;20045;-62
2022/10/08 12:28:19;;;;;;;3.95;1.33;;;15.80;99.90;;;;;;4957288;28;20600;-63
2022/10/08 12:31:24;;;;;;;7.97;1.30;;;15.80;99.90;;;;;;4961563;28;20034;-62
2022/10/08 12:34:15;;;;;;;7.20;1.23;;;15.80;99.90;;;;;;4958264;28;20081;-62
2022/10/08 12:37:02;;;;;;;5.95;1.38;;;15.70;99.90;;;;;;4960437;28;20439;-62
2022/10/08 12:39:35;;;;;;;7.22;1.13;;;15.80;99.90;;;;;;4958144;28;20035;-63
2022/10/08 12:42:10;;;;;;;7.47;1.20;;;15.80;99.90;;;;;;4963741;28;20097;-62
2022/10/08 12:44:43;;;;;;;4.28;1.00;;;15.80;99.90;;;;;;4961560;28;20444;-62
2022/10/08 12:47:36;;;;;;;;;;;15.80;99.90;;;;;;4964870;28;20042;-62
2022/10/08 12:50:23;;;;;;;7.07;1.50;;;15.90;99.90;;;;;;4953924;28;20381;-63
2022/10/08 12:52:49;;;;;;;5.65;1.90;;;15.90;99.90;;;;;;4956451;28;20612;-62
2022/10/08 12:55:18;;;;;;;6.85;1.15;;;15.90;99.90;;;;;;4952041;28;20237;-63
2022/10/08 12:57:46;;;;;;;5.18;1.27;;;15.90;99.90;;;;;;4965795;28;20371;-63
2022/10/08 13:00:23;;;;;;;4.55;1.10;;;15.90;99.90;;;;;;4958146;28;20034;-62
2022/10/08 13:03:11;;;;;;;6.20;0.93;;;16.00;99.90;;;;;;4956483;28;20038;-65
2022/10/08 13:05:42;;;;;;;4.55;1.45;;;16.00;99.90;;;;;;4958478;28;20167;-63